sensor_id;sensor_type;location;lat;lon;timestamp;pressure;altitude;pressure_sealevel;temperature;humidity
45050;BME280;61798;48.048;-1.928;2023-06-19T00:00:35;100451.88;;;14.40;100.00
45050;BME280;61798;48.048;-1.928;2023-06-19T00:02:43;100456.53;;;14.33;100.00
45050;BME280;61798;48.048;-1.928;2023-06-19T00:04:52;100463.16;;;14.30;100.00
45050;BME280;61798;48.048;-1.928;2023-06-19T00:07:00;100455.97;;;14.24;100.00
45050;BME280;61798;48.048;-1.928;2023-06-19T00:09:07;100457.69;;;14.18;100.00
45050;BME280;61798;48.048;-1.928;2023-06-19T00:11:14;100463.03;;;14.25;100.00
45050;BME280;61798;48.048;-1.928;2023-06-19T00:13:22;100469.00;;;14.27;100.00
45050;BME280;61798;48.048;-1.928;2023-06-19T00:15:30;100469.22;;;14.25;100.00
45050;BME280;61798;48.048;-1.928;2023-06-19T00:17:38;100482.56;;;14.39;100.00
45050;BME280;61798;48.048;-1.928;2023-06-19T00:19:45;100475.34;;;14.58;100.00
45050;BME280;61798;48.048;-1.928;2023-06-19T00:21:53;100415.94;;;14.27;100.00
45050;BME280;61798;48.048;-1.928;2023-06-19T00:24:05;100473.47;;;14.59;100.00
45050;BME280;61798;48.048;-1.928;2023-06-19T00:26:12;100468.16;;;14.71;100.00
45050;BME280;61798;48.048;-1.928;2023-06-19T00:28:21;100445.13;;;14.49;100.00
45050;BME280;61798;48.048;-1.928;2023-06-19T00:30:28;100471.06;;;14.51;100.00
45050;BME280;61798;48.048;-1.928;2023-06-19T00:32:39;100469.84;;;14.46;100.00
45050;BME280;61798;48.048;-1.928;2023-06-19T00:34:53;100467.31;;;14.33;100.00
45050;BME280;61798;48.048;-1.928;2023-06-19T00:37:00;100472.69;;;14.33;100.00
45050;BME280;61798;48.048;-1.928;2023-06-19T00:39:07;100465.94;;;14.42;100.00
45050;BME280;61798;48.048;-1.928;2023-06-19T00:41:15;100470.69;;;14.47;100.00
45050;BME280;61798;48.048;-1.928;2023-06-19T00:43:23;100474.59;;;14.51;100.00
45050;BME280;61798;48.048;-1.928;2023-06-19T00:45:31;100479.66;;;14.41;100.00
45050;BME280;61798;48.048;-1.928;2023-06-19T00:47:38;100472.69;;;14.33;100.00
45050;BME280;61798;48.048;-1.928;2023-06-19T00:49:45;100484.69;;;14.37;100.00
45050;BME280;61798;48.048;-1.928;2023-06-19T00:51:52;100487.59;;;14.35;100.00
45050;BME280;61798;48.048;-1.928;2023-06-19T00:54:00;100488.19;;;14.37;100.00
45050;BME280;61798;48.048;-1.928;2023-06-19T00:56:07;100476.53;;;14.44;100.00
45050;BME280;61798;48.048;-1.928;2023-06-19T00:58:15;100485.81;;;14.48;100.00
45050;BME280;61798;48.048;-1.928;2023-06-19T01:00:22;100482.38;;;14.41;100.00
45050;BME280;61798;48.048;-1.928;2023-06-19T01:02:30;100467.78;;;14.48;100.00
45050;BME280;61798;48.048;-1.928;2023-06-19T01:04:37;100465.00;;;14.55;100.00
45050;BME280;61798;48.048;-1.928;2023-06-19T01:06:54;100461.84;;;14.40;100.00
45050;BME280;61798;48.048;-1.928;2023-06-19T01:09:08;100464.16;;;14.36;100.00
45050;BME280;61798;48.048;-1.928;2023-06-19T01:11:30;100485.09;;;14.34;100.00
45050;BME280;61798;48.048;-1.928;2023-06-19T01:13:50;100488.19;;;14.37;100.00
45050;BME280;61798;48.048;-1.928;2023-06-19T01:16:02;100486.75;;;14.35;100.00
45050;BME280;61798;48.048;-1.928;2023-06-19T01:18:17;100480.53;;;14.34;100.00
45050;BME280;61798;48.048;-1.928;2023-06-19T01:20:25;100475.50;;;14.19;100.00
45050;BME280;61798;48.048;-1.928;2023-06-19T01:22:32;100498.63;;;14.53;100.00
45050;BME280;61798;48.048;-1.928;2023-06-19T01:24:39;100496.13;;;14.32;100.00
45050;BME280;61798;48.048;-1.928;2023-06-19T01:26:46;100498.03;;;14.51;100.00
45050;BME280;61798;48.048;-1.928;2023-06-19T01:28:54;100497.84;;;14.45;100.00
45050;BME280;61798;48.048;-1.928;2023-06-19T01:31:02;100489.72;;;14.52;100.00
45050;BME280;61798;48.048;-1.928;2023-06-19T01:33:23;100512.50;;;14.56;100.00
45050;BME280;61798;48.048;-1.928;2023-06-19T01:35:35;100524.41;;;14.86;100.00
45050;BME280;61798;48.048;-1.928;2023-06-19T01:37:41;100518.34;;;14.72;100.00
45050;BME280;61798;48.048;-1.928;2023-06-19T01:39:50;100521.78;;;14.79;100.00
45050;BME280;61798;48.048;-1.928;2023-06-19T01:41:58;100521.72;;;14.67;100.00
45050;BME280;61798;48.048;-1.928;2023-06-19T01:44:06;100523.38;;;14.68;100.00
45050;BME280;61798;48.048;-1.928;2023-06-19T01:46:14;100506.03;;;14.57;100.00
45050;BME280;61798;48.048;-1.928;2023-06-19T01:48:22;100528.47;;;14.77;100.00
45050;BME280;61798;48.048;-1.928;2023-06-19T01:50:29;100523.44;;;14.80;100.00
45050;BME280;61798;48.048;-1.928;2023-06-19T01:52:38;100527.72;;;14.88;100.00
45050;BME280;61798;48.048;-1.928;2023-06-19T01:54:45;100504.03;;;14.72;100.00
45050;BME280;61798;48.048;-1.928;2023-06-19T01:56:52;100538.25;;;14.97;100.00
45050;BME280;61798;48.048;-1.928;2023-06-19T01:58:59;100529.09;;;14.98;100.00
45050;BME280;61798;48.048;-1.928;2023-06-19T02:01:06;100540.50;;;15.00;100.00
45050;BME280;61798;48.048;-1.928;2023-06-19T02:03:13;100523.09;;;14.96;100.00
45050;BME280;61798;48.048;-1.928;2023-06-19T02:05:21;100523.84;;;15.03;100.00
45050;BME280;61798;48.048;-1.928;2023-06-19T02:07:28;100494.19;;;14.77;100.00
45050;BME280;61798;48.048;-1.928;2023-06-19T02:09:37;100536.56;;;15.15;100.00
45050;BME280;61798;48.048;-1.928;2023-06-19T02:11:44;100535.38;;;15.10;100.00
45050;BME280;61798;48.048;-1.928;2023-06-19T02:13:50;100546.16;;;15.10;100.00
45050;BME280;61798;48.048;-1.928;2023-06-19T02:15:58;100542.28;;;15.06;100.00
45050;BME280;61798;48.048;-1.928;2023-06-19T02:18:05;100545.50;;;15.15;100.00
45050;BME280;61798;48.048;-1.928;2023-06-19T02:20:12;100540.25;;;15.20;100.00
45050;BME280;61798;48.048;-1.928;2023-06-19T02:22:19;100543.44;;;15.29;100.00
45050;BME280;61798;48.048;-1.928;2023-06-19T02:24:26;100523.81;;;15.22;100.00
45050;BME280;61798;48.048;-1.928;2023-06-19T02:26:33;100544.94;;;15.44;100.00
45050;BME280;61798;48.048;-1.928;2023-06-19T02:28:41;100530.56;;;15.31;100.00
45050;BME280;61798;48.048;-1.928;2023-06-19T02:30:48;100548.69;;;15.43;100.00
45050;BME280;61798;48.048;-1.928;2023-06-19T02:32:55;100542.47;;;15.42;100.00
45050;BME280;61798;48.048;-1.928;2023-06-19T02:35:04;100540.81;;;15.41;100.00
45050;BME280;61798;48.048;-1.928;2023-06-19T02:37:12;100534.09;;;15.32;100.00
45050;BME280;61798;48.048;-1.928;2023-06-19T02:39:21;100541.53;;;15.49;100.00
45050;BME280;61798;48.048;-1.928;2023-06-19T02:41:28;100536.97;;;15.49;100.00
45050;BME280;61798;48.048;-1.928;2023-06-19T02:43:35;100531.66;;;15.42;100.00
45050;BME280;61798;48.048;-1.928;2023-06-19T02:45:42;100531.75;;;15.36;100.00
45050;BME280;61798;48.048;-1.928;2023-06-19T02:47:49;100537.28;;;15.41;100.00
45050;BME280;61798;48.048;-1.928;2023-06-19T02:49:59;100548.53;;;15.38;100.00
45050;BME280;61798;48.048;-1.928;2023-06-19T02:52:07;100542.31;;;15.37;100.00
45050;BME280;61798;48.048;-1.928;2023-06-19T02:54:14;100538.03;;;15.29;100.00
45050;BME280;61798;48.048;-1.928;2023-06-19T02:56:22;100558.28;;;15.39;100.00
45050;BME280;61798;48.048;-1.928;2023-06-19T02:58:30;100551.16;;;15.45;100.00
45050;BME280;61798;48.048;-1.928;2023-06-19T03:00:37;100549.16;;;15.40;100.00
45050;BME280;61798;48.048;-1.928;2023-06-19T03:02:45;100553.41;;;15.48;100.00
45050;BME280;61798;48.048;-1.928;2023-06-19T03:04:55;100549.78;;;15.54;100.00
45050;BME280;61798;48.048;-1.928;2023-06-19T03:07:02;100556.00;;;15.54;100.00
45050;BME280;61798;48.048;-1.928;2023-06-19T03:09:09;100531.13;;;15.52;100.00
45050;BME280;61798;48.048;-1.928;2023-06-19T03:11:19;100552.38;;;15.61;100.00
45050;BME280;61798;48.048;-1.928;2023-06-19T03:13:27;100540.16;;;15.58;100.00
45050;BME280;61798;48.048;-1.928;2023-06-19T03:15:34;100544.78;;;15.70;100.00
45050;BME280;61798;48.048;-1.928;2023-06-19T03:17:41;100542.78;;;15.65;100.00
45050;BME280;61798;48.048;-1.928;2023-06-19T03:19:48;100531.88;;;15.41;100.00
45050;BME280;61798;48.048;-1.928;2023-06-19T03:21:55;100540.53;;;15.62;100.00
45050;BME280;61798;48.048;-1.928;2023-06-19T03:24:01;100540.03;;;15.53;100.00
45050;BME280;61798;48.048;-1.928;2023-06-19T03:26:09;100545.22;;;15.54;100.00
45050;BME280;61798;48.048;-1.928;2023-06-19T03:28:19;100535.69;;;15.52;100.00
45050;BME280;61798;48.048;-1.928;2023-06-19T03:30:27;100548.22;;;15.46;100.00
45050;BME280;61798;48.048;-1.928;2023-06-19T03:32:35;100539.59;;;15.37;100.00
45050;BME280;61798;48.048;-1.928;2023-06-19T03:34:42;100543.75;;;15.40;100.00
45050;BME280;61798;48.048;-1.928;2023-06-19T03:36:51;100546.88;;;15.37;100.00
45050;BME280;61798;48.048;-1.928;2023-06-19T03:38:58;100535.72;;;15.33;100.00
45050;BME280;61798;48.048;-1.928;2023-06-19T03:41:05;100543.75;;;15.40;100.00
45050;BME280;61798;48.048;-1.928;2023-06-19T03:43:12;100532.66;;;15.29;100.00
45050;BME280;61798;48.048;-1.928;2023-06-19T03:45:18;100546.03;;;15.55;100.00
45050;BME280;61798;48.048;-1.928;2023-06-19T03:47:25;100556.94;;;15.48;100.00
45050;BME280;61798;48.048;-1.928;2023-06-19T03:49:32;100555.28;;;15.47;100.00
45050;BME280;61798;48.048;-1.928;2023-06-19T03:51:39;100539.13;;;15.28;100.00
45050;BME280;61798;48.048;-1.928;2023-06-19T03:53:47;100556.88;;;15.36;100.00
45050;BME280;61798;48.048;-1.928;2023-06-19T03:55:53;100563.06;;;15.56;100.00
45050;BME280;61798;48.048;-1.928;2023-06-19T03:58:00;100540.91;;;15.35;100.00
45050;BME280;61798;48.048;-1.928;2023-06-19T04:00:07;100563.97;;;15.49;100.00
45050;BME280;61798;48.048;-1.928;2023-06-19T04:02:15;100565.25;;;15.47;100.00
45050;BME280;61798;48.048;-1.928;2023-06-19T04:04:21;100571.47;;;15.47;100.00
45050;BME280;61798;48.048;-1.928;2023-06-19T04:06:28;100564.28;;;15.41;100.00
45050;BME280;61798;48.048;-1.928;2023-06-19T04:08:35;100569.31;;;15.37;100.00
45050;BME280;61798;48.048;-1.928;2023-06-19T04:10:43;100568.72;;;15.35;100.00
45050;BME280;61798;48.048;-1.928;2023-06-19T04:12:50;100573.28;;;15.35;100.00
45050;BME280;61798;48.048;-1.928;2023-06-19T04:14:57;100564.63;;;15.32;100.00
45050;BME280;61798;48.048;-1.928;2023-06-19T04:17:03;100578.97;;;15.45;100.00
45050;BME280;61798;48.048;-1.928;2023-06-19T04:19:09;100563.91;;;15.37;100.00
45050;BME280;61798;48.048;-1.928;2023-06-19T04:21:15;100568.03;;;15.40;100.00
45050;BME280;61798;48.048;-1.928;2023-06-19T04:23:21;100582.44;;;15.52;100.00
45050;BME280;61798;48.048;-1.928;2023-06-19T04:25:27;100571.75;;;15.58;100.00
45050;BME280;61798;48.048;-1.928;2023-06-19T04:27:34;100556.84;;;15.55;100.00
45050;BME280;61798;48.048;-1.928;2023-06-19T04:29:39;100567.28;;;15.51;100.00
45050;BME280;61798;48.048;-1.928;2023-06-19T04:31:45;100566.22;;;15.52;100.00
45050;BME280;61798;48.048;-1.928;2023-06-19T04:33:54;100550.78;;;15.41;100.00
45050;BME280;61798;48.048;-1.928;2023-06-19T04:36:01;100566.97;;;15.60;100.00
45050;BME280;61798;48.048;-1.928;2023-06-19T04:38:08;100577.63;;;15.54;100.00
45050;BME280;61798;48.048;-1.928;2023-06-19T04:40:14;100563.00;;;15.43;100.00
45050;BME280;61798;48.048;-1.928;2023-06-19T04:42:20;100539.97;;;15.41;100.00
45050;BME280;61798;48.048;-1.928;2023-06-19T04:44:26;100561.03;;;15.51;100.00
45050;BME280;61798;48.048;-1.928;2023-06-19T04:46:32;100551.03;;;15.39;100.00
45050;BME280;61798;48.048;-1.928;2023-06-19T04:48:37;100569.72;;;15.53;100.00
45050;BME280;61798;48.048;-1.928;2023-06-19T04:50:45;100563.44;;;15.59;100.00
45050;BME280;61798;48.048;-1.928;2023-06-19T04:52:51;100554.41;;;15.65;100.00
45050;BME280;61798;48.048;-1.928;2023-06-19T04:54:58;100552.06;;;15.69;100.00
45050;BME280;61798;48.048;-1.928;2023-06-19T04:57:05;100542.78;;;15.65;100.00
45050;BME280;61798;48.048;-1.928;2023-06-19T04:59:13;100549.09;;;15.59;100.00
45050;BME280;61798;48.048;-1.928;2023-06-19T05:01:26;100542.28;;;15.56;100.00
45050;BME280;61798;48.048;-1.928;2023-06-19T05:03:37;100555.16;;;15.85;100.00
45050;BME280;61798;48.048;-1.928;2023-06-19T05:05:45;100558.19;;;15.77;100.00
45050;BME280;61798;48.048;-1.928;2023-06-19T05:07:52;100548.16;;;15.65;100.00
45050;BME280;61798;48.048;-1.928;2023-06-19T05:09:59;100541.00;;;15.59;100.00
45050;BME280;61798;48.048;-1.928;2023-06-19T05:12:06;100549.00;;;15.65;100.00
45050;BME280;61798;48.048;-1.928;2023-06-19T05:14:14;100549.59;;;15.68;100.00
45050;BME280;61798;48.048;-1.928;2023-06-19T05:16:21;100537.88;;;15.74;100.00
45050;BME280;61798;48.048;-1.928;2023-06-19T05:18:30;100526.84;;;15.75;100.00
45050;BME280;61798;48.048;-1.928;2023-06-19T05:20:37;100536.97;;;15.80;100.00
45050;BME280;61798;48.048;-1.928;2023-06-19T05:22:44;100538.84;;;15.80;100.00
45050;BME280;61798;48.048;-1.928;2023-06-19T05:24:51;100522.25;;;15.64;100.00
45050;BME280;61798;48.048;-1.928;2023-06-19T05:26:58;100527.56;;;15.83;100.00
45050;BME280;61798;48.048;-1.928;2023-06-19T05:29:06;100542.38;;;15.80;100.00
45050;BME280;61798;48.048;-1.928;2023-06-19T05:31:15;100528.38;;;15.71;100.00
45050;BME280;61798;48.048;-1.928;2023-06-19T05:33:22;100518.41;;;15.84;100.00
45050;BME280;61798;48.048;-1.928;2023-06-19T05:35:29;100536.03;;;15.86;100.00
45050;BME280;61798;48.048;-1.928;2023-06-19T05:37:36;100530.09;;;15.65;100.00
45050;BME280;61798;48.048;-1.928;2023-06-19T05:39:45;100528.63;;;15.82;100.00
45050;BME280;61798;48.048;-1.928;2023-06-19T05:41:52;100519.38;;;15.59;100.00
45050;BME280;61798;48.048;-1.928;2023-06-19T05:43:59;100540.72;;;15.79;100.00
45050;BME280;61798;48.048;-1.928;2023-06-19T05:46:07;100501.00;;;15.68;100.00
45050;BME280;61798;48.048;-1.928;2023-06-19T05:48:14;100541.53;;;15.80;100.00
45050;BME280;61798;48.048;-1.928;2023-06-19T05:50:24;100535.06;;;15.81;100.00
45050;BME280;61798;48.048;-1.928;2023-06-19T05:52:31;100543.44;;;15.91;100.00
45050;BME280;61798;48.048;-1.928;2023-06-19T05:54:38;100533.31;;;15.86;100.00
45050;BME280;61798;48.048;-1.928;2023-06-19T05:56:45;100542.72;;;15.84;100.00
45050;BME280;61798;48.048;-1.928;2023-06-19T05:58:53;100528.25;;;15.78;100.00
45050;BME280;61798;48.048;-1.928;2023-06-19T06:01:01;100503.78;;;15.73;100.00
45050;BME280;61798;48.048;-1.928;2023-06-19T06:03:10;100531.38;;;16.06;100.00
45050;BME280;61798;48.048;-1.928;2023-06-19T06:05:18;100542.25;;;15.87;100.00
45050;BME280;61798;48.048;-1.928;2023-06-19T06:07:28;100539.81;;;15.98;100.00
45050;BME280;61798;48.048;-1.928;2023-06-19T06:09:35;100527.91;;;15.74;100.00
45050;BME280;61798;48.048;-1.928;2023-06-19T06:11:43;100542.16;;;15.94;100.00
45050;BME280;61798;48.048;-1.928;2023-06-19T06:13:50;100526.53;;;15.84;100.00
45050;BME280;61798;48.048;-1.928;2023-06-19T06:15:57;100509.47;;;15.83;100.00
45050;BME280;61798;48.048;-1.928;2023-06-19T06:18:05;100524.88;;;15.95;100.00
45050;BME280;61798;48.048;-1.928;2023-06-19T06:20:12;100535.38;;;16.03;100.00
45050;BME280;61798;48.048;-1.928;2023-06-19T06:22:19;100536.63;;;16.01;100.00
45050;BME280;61798;48.048;-1.928;2023-06-19T06:24:27;100533.19;;;16.12;100.00
45050;BME280;61798;48.048;-1.928;2023-06-19T06:26:34;100511.91;;;16.16;100.00
45050;BME280;61798;48.048;-1.928;2023-06-19T06:28:42;100516.72;;;16.26;100.00
45050;BME280;61798;48.048;-1.928;2023-06-19T06:30:49;100518.25;;;16.22;100.00
45050;BME280;61798;48.048;-1.928;2023-06-19T06:32:56;100523.31;;;16.30;100.00
45050;BME280;61798;48.048;-1.928;2023-06-19T06:35:05;100531.91;;;16.39;100.00
45050;BME280;61798;48.048;-1.928;2023-06-19T06:37:12;100520.81;;;16.53;100.00
45050;BME280;61798;48.048;-1.928;2023-06-19T06:39:21;100513.78;;;16.64;100.00
45050;BME280;61798;48.048;-1.928;2023-06-19T06:41:28;100509.66;;;16.49;100.00
45050;BME280;61798;48.048;-1.928;2023-06-19T06:43:34;100534.69;;;16.56;100.00
45050;BME280;61798;48.048;-1.928;2023-06-19T06:45:41;100509.91;;;16.35;100.00
45050;BME280;61798;48.048;-1.928;2023-06-19T06:47:49;100505.22;;;16.43;100.00
45050;BME280;61798;48.048;-1.928;2023-06-19T06:49:56;100531.75;;;16.70;100.00
45050;BME280;61798;48.048;-1.928;2023-06-19T06:52:05;100547.00;;;17.00;100.00
45050;BME280;61798;48.048;-1.928;2023-06-19T06:54:11;100514.63;;;17.06;100.00
45050;BME280;61798;48.048;-1.928;2023-06-19T06:56:17;100513.78;;;16.64;100.00
45050;BME280;61798;48.048;-1.928;2023-06-19T06:58:23;100503.28;;;16.79;100.00
45050;BME280;61798;48.048;-1.928;2023-06-19T07:00:29;100513.53;;;16.65;100.00
45050;BME280;61798;48.048;-1.928;2023-06-19T07:02:37;100516.94;;;16.48;100.00
45050;BME280;61798;48.048;-1.928;2023-06-19T07:04:44;100530.13;;;16.45;100.00
45050;BME280;61798;48.048;-1.928;2023-06-19T07:06:49;100558.06;;;17.11;100.00
45050;BME280;61798;48.048;-1.928;2023-06-19T07:08:56;100532.56;;;16.95;100.00
45050;BME280;61798;48.048;-1.928;2023-06-19T07:11:02;100561.03;;;17.51;100.00
45050;BME280;61798;48.048;-1.928;2023-06-19T07:13:08;100554.06;;;17.72;100.00
45050;BME280;61798;48.048;-1.928;2023-06-19T07:15:14;100553.34;;;17.77;100.00
45050;BME280;61798;48.048;-1.928;2023-06-19T07:17:20;100522.06;;;17.40;100.00
45050;BME280;61798;48.048;-1.928;2023-06-19T07:19:26;100543.81;;;17.74;100.00
45050;BME280;61798;48.048;-1.928;2023-06-19T07:21:31;100536.59;;;17.63;100.00
45050;BME280;61798;48.048;-1.928;2023-06-19T07:23:39;100532.09;;;17.39;100.00
45050;BME280;61798;48.048;-1.928;2023-06-19T07:25:46;100531.78;;;17.53;100.00
45050;BME280;61798;48.048;-1.928;2023-06-19T07:27:52;100544.75;;;17.51;100.00
45050;BME280;61798;48.048;-1.928;2023-06-19T07:29:58;100506.84;;;17.51;100.00
45050;BME280;61798;48.048;-1.928;2023-06-19T07:32:04;100509.47;;;17.80;100.00
45050;BME280;61798;48.048;-1.928;2023-06-19T07:34:10;100510.31;;;17.81;100.00
45050;BME280;61798;48.048;-1.928;2023-06-19T07:36:16;100513.34;;;17.84;100.00
45050;BME280;61798;48.048;-1.928;2023-06-19T07:38:23;100489.59;;;17.57;100.00
45050;BME280;61798;48.048;-1.928;2023-06-19T07:40:29;100483.06;;;17.23;100.00
45050;BME280;61798;48.048;-1.928;2023-06-19T07:42:34;100522.06;;;17.40;100.00
45050;BME280;61798;48.048;-1.928;2023-06-19T07:44:41;100497.44;;;17.41;100.00
45050;BME280;61798;48.048;-1.928;2023-06-19T07:46:47;100524.13;;;17.79;100.00
45050;BME280;61798;48.048;-1.928;2023-06-19T07:48:53;100495.66;;;17.47;100.00
45050;BME280;61798;48.048;-1.928;2023-06-19T07:50:59;100501.72;;;17.37;100.00
45050;BME280;61798;48.048;-1.928;2023-06-19T07:53:05;100504.16;;;17.85;100.00
45050;BME280;61798;48.048;-1.928;2023-06-19T07:55:11;100490.44;;;18.10;100.00
45050;BME280;61798;48.048;-1.928;2023-06-19T07:57:17;100500.53;;;18.32;100.00
45050;BME280;61798;48.048;-1.928;2023-06-19T07:59:22;100468.56;;;18.16;100.00
45050;BME280;61798;48.048;-1.928;2023-06-19T08:01:28;100480.41;;;18.27;100.00
45050;BME280;61798;48.048;-1.928;2023-06-19T08:03:34;100498.22;;;18.80;100.00
45050;BME280;61798;48.048;-1.928;2023-06-19T08:05:40;100479.22;;;19.31;100.00
45050;BME280;61798;48.048;-1.928;2023-06-19T08:07:47;100450.22;;;19.37;100.00
45050;BME280;61798;48.048;-1.928;2023-06-19T08:09:52;100460.56;;;19.40;100.00
45050;BME280;61798;48.048;-1.928;2023-06-19T08:11:58;100446.84;;;19.24;100.00
45050;BME280;61798;48.048;-1.928;2023-06-19T08:14:04;100449.50;;;19.19;100.00
45050;BME280;61798;48.048;-1.928;2023-06-19T08:16:10;100418.78;;;18.90;100.00
45050;BME280;61798;48.048;-1.928;2023-06-19T08:18:16;100460.06;;;19.43;100.00
45050;BME280;61798;48.048;-1.928;2023-06-19T08:20:23;100453.28;;;19.18;100.00
45050;BME280;61798;48.048;-1.928;2023-06-19T08:22:29;100455.91;;;19.35;100.00
45050;BME280;61798;48.048;-1.928;2023-06-19T08:24:36;100447.13;;;19.55;100.00
45050;BME280;61798;48.048;-1.928;2023-06-19T08:26:42;100434.88;;;19.53;100.00
45050;BME280;61798;48.048;-1.928;2023-06-19T08:28:48;100422.19;;;19.64;100.00
45050;BME280;61798;48.048;-1.928;2023-06-19T08:30:53;100435.25;;;19.67;100.00
45050;BME280;61798;48.048;-1.928;2023-06-19T08:32:59;100441.84;;;19.76;100.00
45050;BME280;61798;48.048;-1.928;2023-06-19T08:35:05;100449.78;;;19.83;100.00
45050;BME280;61798;48.048;-1.928;2023-06-19T08:37:12;100442.91;;;19.70;100.00
45050;BME280;61798;48.048;-1.928;2023-06-19T08:39:17;100432.50;;;19.62;100.00
45050;BME280;61798;48.048;-1.928;2023-06-19T08:41:25;100429.28;;;19.65;100.00
45050;BME280;61798;48.048;-1.928;2023-06-19T08:43:32;100438.81;;;20.06;100.00
45050;BME280;61798;48.048;-1.928;2023-06-19T08:45:38;100426.94;;;20.17;100.00
45050;BME280;61798;48.048;-1.928;2023-06-19T08:47:44;100433.66;;;19.71;100.00
45050;BME280;61798;48.048;-1.928;2023-06-19T08:49:50;100414.47;;;19.89;100.00
45050;BME280;61798;48.048;-1.928;2023-06-19T08:51:55;100424.72;;;20.14;100.00
45050;BME280;61798;48.048;-1.928;2023-06-19T08:54:04;100433.50;;;20.27;100.00
45050;BME280;61798;48.048;-1.928;2023-06-19T08:56:10;100442.34;;;20.60;100.00
45050;BME280;61798;48.048;-1.928;2023-06-19T08:58:22;100439.78;;;20.33;100.00
45050;BME280;61798;48.048;-1.928;2023-06-19T09:00:29;100445.47;;;20.26;100.00
45050;BME280;61798;48.048;-1.928;2023-06-19T09:02:45;100429.81;;;20.05;100.00
45050;BME280;61798;48.048;-1.928;2023-06-19T09:04:51;100433.50;;;20.27;100.00
45050;BME280;61798;48.048;-1.928;2023-06-19T09:07:03;100432.47;;;20.38;100.00
45050;BME280;61798;48.048;-1.928;2023-06-19T09:09:09;100424.50;;;20.26;100.00
45050;BME280;61798;48.048;-1.928;2023-06-19T09:11:18;100427.22;;;20.26;100.00
45050;BME280;61798;48.048;-1.928;2023-06-19T09:13:27;100437.09;;;20.38;100.00
45050;BME280;61798;48.048;-1.928;2023-06-19T09:15:36;100437.31;;;20.31;100.00
45050;BME280;61798;48.048;-1.928;2023-06-19T09:17:42;100442.34;;;20.60;100.00
45050;BME280;61798;48.048;-1.928;2023-06-19T09:19:49;100434.84;;;20.89;100.00
45050;BME280;61798;48.048;-1.928;2023-06-19T09:22:00;100434.00;;;20.88;100.00
45050;BME280;61798;48.048;-1.928;2023-06-19T09:24:07;100430.97;;;20.79;100.00
45050;BME280;61798;48.048;-1.928;2023-06-19T09:26:17;100415.72;;;20.78;100.00
45050;BME280;61798;48.048;-1.928;2023-06-19T09:28:26;100417.19;;;21.07;100.00
45050;BME280;61798;48.048;-1.928;2023-06-19T09:30:32;100429.50;;;21.26;100.00
45050;BME280;61798;48.048;-1.928;2023-06-19T09:32:39;100403.59;;;21.23;100.00
45050;BME280;61798;48.048;-1.928;2023-06-19T09:34:45;100425.13;;;21.30;100.00
45050;BME280;61798;48.048;-1.928;2023-06-19T09:36:52;100418.50;;;20.89;100.00
45050;BME280;61798;48.048;-1.928;2023-06-19T09:38:59;100422.53;;;20.76;100.00
45050;BME280;61798;48.048;-1.928;2023-06-19T09:41:05;100417.66;;;20.88;100.00
45050;BME280;61798;48.048;-1.928;2023-06-19T09:43:14;100390.66;;;20.66;100.00
45050;BME280;61798;48.048;-1.928;2023-06-19T09:45:23;100423.94;;;20.99;100.00
45050;BME280;61798;48.048;-1.928;2023-06-19T09:47:46;100417.84;;;20.60;100.00
45050;BME280;61798;48.048;-1.928;2023-06-19T09:49:56;100414.00;;;20.46;100.00
45050;BME280;61798;48.048;-1.928;2023-06-19T09:52:02;100406.44;;;20.74;100.00
45050;BME280;61798;48.048;-1.928;2023-06-19T09:54:09;100387.38;;;20.64;100.00
45050;BME280;61798;48.048;-1.928;2023-06-19T09:56:17;100411.84;;;20.58;100.00
45050;BME280;61798;48.048;-1.928;2023-06-19T09:58:27;100403.56;;;21.07;100.00
45050;BME280;61798;48.048;-1.928;2023-06-19T10:00:34;100376.59;;;21.48;100.00
45050;BME280;61798;48.048;-1.928;2023-06-19T10:02:45;100403.78;;;20.90;100.00
45050;BME280;61798;48.048;-1.928;2023-06-19T10:04:53;100397.31;;;21.38;100.00
45050;BME280;61798;48.048;-1.928;2023-06-19T10:07:00;100373.78;;;21.90;100.00
45050;BME280;61798;48.048;-1.928;2023-06-19T10:09:08;100367.81;;;21.98;100.00
45050;BME280;61798;48.048;-1.928;2023-06-19T10:11:14;100368.63;;;22.04;100.00
45050;BME280;61798;48.048;-1.928;2023-06-19T10:13:20;100365.13;;;21.66;100.00
45050;BME280;61798;48.048;-1.928;2023-06-19T10:15:27;100369.53;;;21.57;100.00
45050;BME280;61798;48.048;-1.928;2023-06-19T10:17:33;100355.91;;;21.26;100.00
45050;BME280;61798;48.048;-1.928;2023-06-19T10:19:49;100366.72;;;22.04;100.00
45050;BME280;61798;48.048;-1.928;2023-06-19T10:21:55;100360.91;;;22.78;100.00
45050;BME280;61798;48.048;-1.928;2023-06-19T10:24:01;100343.38;;;22.38;100.00
45050;BME280;61798;48.048;-1.928;2023-06-19T10:26:07;100320.19;;;22.36;100.00
45050;BME280;61798;48.048;-1.928;2023-06-19T10:28:17;100312.66;;;22.06;100.00
45050;BME280;61798;48.048;-1.928;2023-06-19T10:30:23;100342.00;;;22.41;100.00
45050;BME280;61798;48.048;-1.928;2023-06-19T10:32:29;100323.72;;;22.36;100.00
45050;BME280;61798;48.048;-1.928;2023-06-19T10:34:36;100285.13;;;22.08;100.00
45050;BME280;61798;48.048;-1.928;2023-06-19T10:36:42;100314.25;;;22.23;100.00
45050;BME280;61798;48.048;-1.928;2023-06-19T10:38:48;100313.00;;;22.50;100.00
45050;BME280;61798;48.048;-1.928;2023-06-19T10:40:54;100344.59;;;22.62;100.00
45050;BME280;61798;48.048;-1.928;2023-06-19T10:43:01;100311.19;;;22.35;100.00
45050;BME280;61798;48.048;-1.928;2023-06-19T10:45:10;100330.19;;;22.56;100.00
45050;BME280;61798;48.048;-1.928;2023-06-19T10:47:17;100332.50;;;22.74;100.00
45050;BME280;61798;48.048;-1.928;2023-06-19T10:49:23;100310.31;;;22.45;100.00